sensor_id;sensor_type;location;lat;lon;timestamp;P1;durP1;ratioP1;P2;durP2;ratioP2
1479;SDS011;732;51.698;4.886;2023-07-31T00:02:21;44.90;;;15.60;;
1479;SDS011;732;51.698;4.886;2023-07-31T00:04:50;51.03;;;15.40;;
1479;SDS011;732;51.698;4.886;2023-07-31T00:07:18;39.17;;;14.83;;
1479;SDS011;732;51.698;4.886;2023-07-31T00:09:46;43.43;;;16.13;;
1479;SDS011;732;51.698;4.886;2023-07-31T00:12:16;38.87;;;14.20;;
1479;SDS011;732;51.698;4.886;2023-07-31T00:14:44;37.00;;;13.63;;
1479;SDS011;732;51.698;4.886;2023-07-31T00:17:12;37.40;;;14.33;;
1479;SDS011;732;51.698;4.886;2023-07-31T00:19:41;36.03;;;13.00;;
1479;SDS011;732;51.698;4.886;2023-07-31T00:22:09;30.63;;;13.40;;
1479;SDS011;732;51.698;4.886;2023-07-31T00:24:37;29.93;;;12.30;;
1479;SDS011;732;51.698;4.886;2023-07-31T00:27:06;34.93;;;11.80;;
1479;SDS011;732;51.698;4.886;2023-07-31T00:29:36;35.27;;;12.10;;
1479;SDS011;732;51.698;4.886;2023-07-31T00:32:04;34.80;;;12.43;;
1479;SDS011;732;51.698;4.886;2023-07-31T00:34:36;29.70;;;12.33;;
1479;SDS011;732;51.698;4.886;2023-07-31T00:37:05;35.53;;;12.70;;
1479;SDS011;732;51.698;4.886;2023-07-31T00:39:34;34.80;;;11.40;;
1479;SDS011;732;51.698;4.886;2023-07-31T00:42:03;33.53;;;11.17;;
1479;SDS011;732;51.698;4.886;2023-07-31T00:44:32;25.20;;;12.10;;
1479;SDS011;732;51.698;4.886;2023-07-31T00:47:01;27.43;;;12.37;;
1479;SDS011;732;51.698;4.886;2023-07-31T00:49:30;30.27;;;11.93;;
1479;SDS011;732;51.698;4.886;2023-07-31T00:51:59;27.70;;;10.83;;
1479;SDS011;732;51.698;4.886;2023-07-31T00:54:28;28.03;;;11.20;;
1479;SDS011;732;51.698;4.886;2023-07-31T00:56:57;25.10;;;10.70;;
1479;SDS011;732;51.698;4.886;2023-07-31T00:59:27;31.37;;;11.47;;
1479;SDS011;732;51.698;4.886;2023-07-31T01:01:55;23.63;;;9.70;;
1479;SDS011;732;51.698;4.886;2023-07-31T01:04:25;28.23;;;10.80;;
1479;SDS011;732;51.698;4.886;2023-07-31T01:06:56;26.03;;;9.67;;
1479;SDS011;732;51.698;4.886;2023-07-31T01:09:33;27.80;;;11.00;;
1479;SDS011;732;51.698;4.886;2023-07-31T01:12:13;27.90;;;9.17;;
1479;SDS011;732;51.698;4.886;2023-07-31T01:14:50;26.40;;;9.43;;
1479;SDS011;732;51.698;4.886;2023-07-31T01:17:20;20.63;;;8.93;;
1479;SDS011;732;51.698;4.886;2023-07-31T01:19:50;23.90;;;9.63;;
1479;SDS011;732;51.698;4.886;2023-07-31T01:22:24;23.93;;;8.60;;
1479;SDS011;732;51.698;4.886;2023-07-31T01:25:14;32.47;;;11.83;;
1479;SDS011;732;51.698;4.886;2023-07-31T01:28:01;25.83;;;9.27;;
1479;SDS011;732;51.698;4.886;2023-07-31T01:30:33;27.03;;;9.00;;
1479;SDS011;732;51.698;4.886;2023-07-31T01:33:08;27.27;;;9.67;;
1479;SDS011;732;51.698;4.886;2023-07-31T01:35:37;22.03;;;9.90;;
1479;SDS011;732;51.698;4.886;2023-07-31T01:38:06;26.37;;;9.30;;
1479;SDS011;732;51.698;4.886;2023-07-31T01:40:34;27.67;;;9.53;;
1479;SDS011;732;51.698;4.886;2023-07-31T01:43:04;27.73;;;9.37;;
1479;SDS011;732;51.698;4.886;2023-07-31T01:45:33;31.13;;;10.30;;
1479;SDS011;732;51.698;4.886;2023-07-31T01:48:01;26.93;;;10.00;;
1479;SDS011;732;51.698;4.886;2023-07-31T01:50:30;29.93;;;11.13;;
1479;SDS011;732;51.698;4.886;2023-07-31T01:52:58;31.93;;;9.97;;
1479;SDS011;732;51.698;4.886;2023-07-31T01:55:27;26.07;;;9.63;;
1479;SDS011;732;51.698;4.886;2023-07-31T01:57:55;23.60;;;8.90;;
1479;SDS011;732;51.698;4.886;2023-07-31T02:00:24;22.83;;;10.97;;
1479;SDS011;732;51.698;4.886;2023-07-31T02:02:53;28.10;;;9.70;;
1479;SDS011;732;51.698;4.886;2023-07-31T02:05:21;27.37;;;10.13;;
1479;SDS011;732;51.698;4.886;2023-07-31T02:07:50;22.17;;;9.20;;
1479;SDS011;732;51.698;4.886;2023-07-31T02:10:18;26.97;;;10.00;;
1479;SDS011;732;51.698;4.886;2023-07-31T02:12:47;29.07;;;10.60;;
1479;SDS011;732;51.698;4.886;2023-07-31T02:15:15;23.07;;;9.13;;
1479;SDS011;732;51.698;4.886;2023-07-31T02:17:44;27.03;;;9.27;;
1479;SDS011;732;51.698;4.886;2023-07-31T02:20:13;28.03;;;9.80;;
1479;SDS011;732;51.698;4.886;2023-07-31T02:22:41;25.20;;;9.20;;
1479;SDS011;732;51.698;4.886;2023-07-31T02:25:10;26.20;;;9.70;;
1479;SDS011;732;51.698;4.886;2023-07-31T02:27:38;27.07;;;9.20;;
1479;SDS011;732;51.698;4.886;2023-07-31T02:30:07;28.03;;;9.60;;
1479;SDS011;732;51.698;4.886;2023-07-31T02:32:37;26.97;;;9.83;;
1479;SDS011;732;51.698;4.886;2023-07-31T02:35:07;27.13;;;9.10;;
1479;SDS011;732;51.698;4.886;2023-07-31T02:37:35;22.87;;;8.90;;
1479;SDS011;732;51.698;4.886;2023-07-31T02:40:05;22.60;;;9.23;;
1479;SDS011;732;51.698;4.886;2023-07-31T02:42:35;21.33;;;9.03;;
1479;SDS011;732;51.698;4.886;2023-07-31T02:45:03;17.77;;;9.00;;
1479;SDS011;732;51.698;4.886;2023-07-31T02:47:33;26.17;;;10.73;;
1479;SDS011;732;51.698;4.886;2023-07-31T02:50:02;23.97;;;8.60;;
1479;SDS011;732;51.698;4.886;2023-07-31T02:52:31;24.10;;;10.23;;
1479;SDS011;732;51.698;4.886;2023-07-31T02:55:00;20.97;;;9.77;;
1479;SDS011;732;51.698;4.886;2023-07-31T02:57:28;23.03;;;8.93;;
1479;SDS011;732;51.698;4.886;2023-07-31T02:59:56;34.37;;;10.13;;
1479;SDS011;732;51.698;4.886;2023-07-31T03:02:24;19.77;;;9.70;;
1479;SDS011;732;51.698;4.886;2023-07-31T03:04:53;29.70;;;10.33;;
1479;SDS011;732;51.698;4.886;2023-07-31T03:07:22;24.53;;;9.60;;
1479;SDS011;732;51.698;4.886;2023-07-31T03:09:51;27.37;;;8.90;;
1479;SDS011;732;51.698;4.886;2023-07-31T03:12:19;20.07;;;8.47;;
1479;SDS011;732;51.698;4.886;2023-07-31T03:14:48;23.30;;;9.80;;
1479;SDS011;732;51.698;4.886;2023-07-31T03:17:16;25.87;;;9.03;;
1479;SDS011;732;51.698;4.886;2023-07-31T03:19:45;24.93;;;8.70;;
1479;SDS011;732;51.698;4.886;2023-07-31T03:22:13;20.80;;;9.20;;
1479;SDS011;732;51.698;4.886;2023-07-31T03:24:42;26.83;;;8.70;;
1479;SDS011;732;51.698;4.886;2023-07-31T03:27:11;20.10;;;8.77;;
1479;SDS011;732;51.698;4.886;2023-07-31T03:29:39;25.73;;;8.83;;
1479;SDS011;732;51.698;4.886;2023-07-31T03:32:08;18.77;;;8.70;;
1479;SDS011;732;51.698;4.886;2023-07-31T03:34:36;20.63;;;8.70;;
1479;SDS011;732;51.698;4.886;2023-07-31T03:37:05;29.47;;;8.60;;
1479;SDS011;732;51.698;4.886;2023-07-31T03:39:35;20.10;;;8.57;;
1479;SDS011;732;51.698;4.886;2023-07-31T03:42:04;19.40;;;8.13;;
1479;SDS011;732;51.698;4.886;2023-07-31T03:44:35;26.23;;;8.50;;
1479;SDS011;732;51.698;4.886;2023-07-31T03:47:04;21.10;;;8.73;;
1479;SDS011;732;51.698;4.886;2023-07-31T03:49:33;26.90;;;8.93;;
1479;SDS011;732;51.698;4.886;2023-07-31T03:52:01;21.30;;;7.77;;
1479;SDS011;732;51.698;4.886;2023-07-31T03:54:30;27.00;;;8.43;;
1479;SDS011;732;51.698;4.886;2023-07-31T03:56:58;22.27;;;8.37;;
1479;SDS011;732;51.698;4.886;2023-07-31T03:59:27;24.93;;;8.50;;
1479;SDS011;732;51.698;4.886;2023-07-31T04:01:56;19.97;;;7.47;;
1479;SDS011;732;51.698;4.886;2023-07-31T04:04:24;18.33;;;7.57;;
1479;SDS011;732;51.698;4.886;2023-07-31T04:06:53;18.83;;;7.90;;
1479;SDS011;732;51.698;4.886;2023-07-31T04:09:21;21.03;;;8.17;;
1479;SDS011;732;51.698;4.886;2023-07-31T04:11:49;19.03;;;8.07;;
1479;SDS011;732;51.698;4.886;2023-07-31T04:14:17;18.47;;;7.60;;
1479;SDS011;732;51.698;4.886;2023-07-31T04:16:46;21.77;;;8.87;;
1479;SDS011;732;51.698;4.886;2023-07-31T04:19:15;21.03;;;7.90;;
1479;SDS011;732;51.698;4.886;2023-07-31T04:21:44;20.10;;;8.07;;
1479;SDS011;732;51.698;4.886;2023-07-31T04:24:12;19.23;;;7.63;;
1479;SDS011;732;51.698;4.886;2023-07-31T04:26:48;22.47;;;8.30;;
1479;SDS011;732;51.698;4.886;2023-07-31T04:29:16;23.07;;;7.57;;
1479;SDS011;732;51.698;4.886;2023-07-31T04:31:45;28.63;;;9.03;;
1479;SDS011;732;51.698;4.886;2023-07-31T04:34:16;24.30;;;9.33;;
1479;SDS011;732;51.698;4.886;2023-07-31T04:36:45;25.60;;;9.40;;
1479;SDS011;732;51.698;4.886;2023-07-31T04:39:13;25.10;;;9.03;;
1479;SDS011;732;51.698;4.886;2023-07-31T04:41:41;23.03;;;10.40;;
1479;SDS011;732;51.698;4.886;2023-07-31T04:44:09;29.93;;;10.50;;
1479;SDS011;732;51.698;4.886;2023-07-31T04:46:38;25.10;;;9.47;;
1479;SDS011;732;51.698;4.886;2023-07-31T04:49:07;22.53;;;10.03;;
1479;SDS011;732;51.698;4.886;2023-07-31T04:51:37;24.77;;;10.10;;
1479;SDS011;732;51.698;4.886;2023-07-31T04:54:05;24.33;;;10.20;;
1479;SDS011;732;51.698;4.886;2023-07-31T04:56:33;26.37;;;11.60;;
1479;SDS011;732;51.698;4.886;2023-07-31T04:59:03;36.83;;;11.03;;
1479;SDS011;732;51.698;4.886;2023-07-31T05:01:31;27.53;;;10.07;;
1479;SDS011;732;51.698;4.886;2023-07-31T05:03:59;24.07;;;11.00;;
1479;SDS011;732;51.698;4.886;2023-07-31T05:06:28;22.40;;;11.27;;
1479;SDS011;732;51.698;4.886;2023-07-31T05:08:57;28.07;;;11.40;;
1479;SDS011;732;51.698;4.886;2023-07-31T05:11:26;26.67;;;10.30;;
1479;SDS011;732;51.698;4.886;2023-07-31T05:13:54;26.63;;;10.87;;
1479;SDS011;732;51.698;4.886;2023-07-31T05:16:23;29.60;;;11.37;;
1479;SDS011;732;51.698;4.886;2023-07-31T05:18:51;25.23;;;10.60;;
1479;SDS011;732;51.698;4.886;2023-07-31T05:21:19;22.83;;;10.37;;
1479;SDS011;732;51.698;4.886;2023-07-31T05:23:47;29.87;;;10.30;;
1479;SDS011;732;51.698;4.886;2023-07-31T05:26:17;33.37;;;11.17;;
1479;SDS011;732;51.698;4.886;2023-07-31T05:28:46;25.07;;;11.30;;
1479;SDS011;732;51.698;4.886;2023-07-31T05:31:14;33.70;;;11.10;;
1479;SDS011;732;51.698;4.886;2023-07-31T05:33:43;30.13;;;11.53;;
1479;SDS011;732;51.698;4.886;2023-07-31T05:36:11;22.70;;;10.13;;
1479;SDS011;732;51.698;4.886;2023-07-31T05:38:39;22.90;;;9.80;;
1479;SDS011;732;51.698;4.886;2023-07-31T05:41:08;24.10;;;10.80;;
1479;SDS011;732;51.698;4.886;2023-07-31T05:43:38;25.63;;;10.30;;
1479;SDS011;732;51.698;4.886;2023-07-31T05:46:06;21.47;;;10.60;;
1479;SDS011;732;51.698;4.886;2023-07-31T05:48:35;24.53;;;11.90;;
1479;SDS011;732;51.698;4.886;2023-07-31T05:51:04;25.90;;;10.60;;
1479;SDS011;732;51.698;4.886;2023-07-31T05:53:32;19.20;;;10.63;;
1479;SDS011;732;51.698;4.886;2023-07-31T05:56:01;31.23;;;12.60;;
1479;SDS011;732;51.698;4.886;2023-07-31T05:58:29;21.37;;;10.67;;
1479;SDS011;732;51.698;4.886;2023-07-31T06:00:59;20.77;;;10.43;;
1479;SDS011;732;51.698;4.886;2023-07-31T06:03:27;21.97;;;11.70;;
1479;SDS011;732;51.698;4.886;2023-07-31T06:05:55;20.90;;;11.37;;
1479;SDS011;732;51.698;4.886;2023-07-31T06:08:24;22.80;;;11.43;;
1479;SDS011;732;51.698;4.886;2023-07-31T06:10:52;22.00;;;10.83;;
1479;SDS011;732;51.698;4.886;2023-07-31T06:13:20;24.23;;;11.73;;
1479;SDS011;732;51.698;4.886;2023-07-31T06:15:49;21.30;;;11.97;;
1479;SDS011;732;51.698;4.886;2023-07-31T06:18:18;24.90;;;12.50;;
1479;SDS011;732;51.698;4.886;2023-07-31T06:20:47;23.27;;;11.70;;
1479;SDS011;732;51.698;4.886;2023-07-31T06:23:19;22.97;;;12.47;;
1479;SDS011;732;51.698;4.886;2023-07-31T06:25:48;22.07;;;11.20;;
1479;SDS011;732;51.698;4.886;2023-07-31T06:28:16;21.50;;;11.90;;
1479;SDS011;732;51.698;4.886;2023-07-31T06:30:44;20.27;;;11.80;;
1479;SDS011;732;51.698;4.886;2023-07-31T06:33:13;20.37;;;11.80;;
1479;SDS011;732;51.698;4.886;2023-07-31T06:35:43;23.90;;;11.80;;
1479;SDS011;732;51.698;4.886;2023-07-31T06:38:12;25.23;;;12.67;;
1479;SDS011;732;51.698;4.886;2023-07-31T06:40:40;21.80;;;12.87;;
1479;SDS011;732;51.698;4.886;2023-07-31T06:43:08;22.90;;;12.73;;
1479;SDS011;732;51.698;4.886;2023-07-31T06:45:37;20.83;;;12.00;;
1479;SDS011;732;51.698;4.886;2023-07-31T06:48:05;21.33;;;12.17;;
1479;SDS011;732;51.698;4.886;2023-07-31T06:50:33;20.50;;;11.40;;
1479;SDS011;732;51.698;4.886;2023-07-31T06:53:03;16.90;;;12.07;;
1479;SDS011;732;51.698;4.886;2023-07-31T06:55:31;23.43;;;12.60;;
1479;SDS011;732;51.698;4.886;2023-07-31T06:58:00;18.23;;;12.70;;
1479;SDS011;732;51.698;4.886;2023-07-31T07:00:28;21.10;;;12.67;;
1479;SDS011;732;51.698;4.886;2023-07-31T07:02:57;22.17;;;12.03;;
1479;SDS011;732;51.698;4.886;2023-07-31T07:05:25;18.07;;;10.73;;
1479;SDS011;732;51.698;4.886;2023-07-31T07:07:54;16.20;;;9.00;;
1479;SDS011;732;51.698;4.886;2023-07-31T07:10:23;11.33;;;8.30;;
1479;SDS011;732;51.698;4.886;2023-07-31T07:12:52;20.30;;;9.10;;
1479;SDS011;732;51.698;4.886;2023-07-31T07:15:21;16.43;;;8.27;;
1479;SDS011;732;51.698;4.886;2023-07-31T07:17:50;14.10;;;8.87;;
1479;SDS011;732;51.698;4.886;2023-07-31T07:20:18;9.63;;;8.37;;
1479;SDS011;732;51.698;4.886;2023-07-31T07:22:46;14.77;;;8.40;;
1479;SDS011;732;51.698;4.886;2023-07-31T07:25:15;12.60;;;8.50;;
1479;SDS011;732;51.698;4.886;2023-07-31T07:27:45;14.13;;;8.37;;
1479;SDS011;732;51.698;4.886;2023-07-31T07:30:13;13.17;;;8.33;;
1479;SDS011;732;51.698;4.886;2023-07-31T07:32:41;10.60;;;8.30;;
1479;SDS011;732;51.698;4.886;2023-07-31T07:35:10;9.80;;;8.50;;
1479;SDS011;732;51.698;4.886;2023-07-31T07:37:39;11.10;;;7.67;;
1479;SDS011;732;51.698;4.886;2023-07-31T07:40:07;11.43;;;7.30;;
1479;SDS011;732;51.698;4.886;2023-07-31T07:42:36;12.00;;;8.60;;
1479;SDS011;732;51.698;4.886;2023-07-31T07:45:07;11.63;;;7.93;;
1479;SDS011;732;51.698;4.886;2023-07-31T07:47:40;13.83;;;9.07;;
1479;SDS011;732;51.698;4.886;2023-07-31T07:50:09;12.23;;;9.03;;
1479;SDS011;732;51.698;4.886;2023-07-31T07:52:37;14.97;;;10.17;;
1479;SDS011;732;51.698;4.886;2023-07-31T07:55:06;11.53;;;9.87;;
1479;SDS011;732;51.698;4.886;2023-07-31T07:57:35;13.47;;;10.03;;
1479;SDS011;732;51.698;4.886;2023-07-31T08:00:03;12.23;;;9.73;;
1479;SDS011;732;51.698;4.886;2023-07-31T08:02:39;14.47;;;10.83;;
1479;SDS011;732;51.698;4.886;2023-07-31T08:05:08;16.70;;;10.90;;
1479;SDS011;732;51.698;4.886;2023-07-31T08:07:36;14.43;;;11.33;;
1479;SDS011;732;51.698;4.886;2023-07-31T08:10:05;17.00;;;11.87;;
1479;SDS011;732;51.698;4.886;2023-07-31T08:12:34;15.90;;;11.97;;
1479;SDS011;732;51.698;4.886;2023-07-31T08:15:03;15.80;;;12.90;;
1479;SDS011;732;51.698;4.886;2023-07-31T08:17:34;15.47;;;13.10;;
1479;SDS011;732;51.698;4.886;2023-07-31T08:20:02;15.77;;;12.67;;
1479;SDS011;732;51.698;4.886;2023-07-31T08:22:31;16.70;;;13.03;;
1479;SDS011;732;51.698;4.886;2023-07-31T08:24:59;21.77;;;15.03;;
1479;SDS011;732;51.698;4.886;2023-07-31T08:27:27;18.83;;;14.03;;
1479;SDS011;732;51.698;4.886;2023-07-31T08:29:56;18.70;;;14.13;;
1479;SDS011;732;51.698;4.886;2023-07-31T08:32:24;21.43;;;15.60;;
1479;SDS011;732;51.698;4.886;2023-07-31T08:34:54;21.27;;;17.37;;
1479;SDS011;732;51.698;4.886;2023-07-31T08:37:22;21.30;;;15.80;;
1479;SDS011;732;51.698;4.886;2023-07-31T08:39:51;18.20;;;14.90;;
1479;SDS011;732;51.698;4.886;2023-07-31T08:42:20;18.47;;;14.67;;
1479;SDS011;732;51.698;4.886;2023-07-31T08:44:48;19.93;;;15.17;;
1479;SDS011;732;51.698;4.886;2023-07-31T08:47:17;18.03;;;14.60;;
1479;SDS011;732;51.698;4.886;2023-07-31T08:49:47;16.60;;;13.97;;
1479;SDS011;732;51.698;4.886;2023-07-31T08:52:18;17.93;;;15.00;;
1479;SDS011;732;51.698;4.886;2023-07-31T08:54:46;19.23;;;14.00;;
1479;SDS011;732;51.698;4.886;2023-07-31T08:57:14;15.10;;;11.90;;
1479;SDS011;732;51.698;4.886;2023-07-31T08:59:44;16.13;;;12.67;;
1479;SDS011;732;51.698;4.886;2023-07-31T09:02:13;19.90;;;13.63;;
1479;SDS011;732;51.698;4.886;2023-07-31T09:04:42;17.57;;;11.67;;
1479;SDS011;732;51.698;4.886;2023-07-31T09:07:11;18.00;;;12.53;;
1479;SDS011;732;51.698;4.886;2023-07-31T09:09:42;14.43;;;11.47;;
1479;SDS011;732;51.698;4.886;2023-07-31T09:12:13;13.70;;;10.90;;
1479;SDS011;732;51.698;4.886;2023-07-31T09:14:41;13.20;;;10.53;;
1479;SDS011;732;51.698;4.886;2023-07-31T09:17:11;15.60;;;10.97;;
1479;SDS011;732;51.698;4.886;2023-07-31T09:19:39;11.80;;;9.47;;
1479;SDS011;732;51.698;4.886;2023-07-31T09:22:08;12.67;;;9.60;;
1479;SDS011;732;51.698;4.886;2023-07-31T09:24:36;10.10;;;8.70;;
1479;SDS011;732;51.698;4.886;2023-07-31T09:27:06;10.03;;;8.30;;
1479;SDS011;732;51.698;4.886;2023-07-31T09:29:34;12.40;;;8.40;;
1479;SDS011;732;51.698;4.886;2023-07-31T09:32:03;12.30;;;8.03;;
1479;SDS011;732;51.698;4.886;2023-07-31T09:34:36;9.00;;;8.10;;
1479;SDS011;732;51.698;4.886;2023-07-31T09:37:05;10.50;;;8.23;;
1479;SDS011;732;51.698;4.886;2023-07-31T09:39:37;8.80;;;7.50;;
1479;SDS011;732;51.698;4.886;2023-07-31T09:42:16;9.60;;;7.53;;
1479;SDS011;732;51.698;4.886;2023-07-31T09:44:53;8.77;;;6.90;;
1479;SDS011;732;51.698;4.886;2023-07-31T09:47:25;8.07;;;7.27;;
1479;SDS011;732;51.698;4.886;2023-07-31T09:49:53;8.20;;;6.53;;
1479;SDS011;732;51.698;4.886;2023-07-31T09:52:22;9.10;;;6.70;;
1479;SDS011;732;51.698;4.886;2023-07-31T09:54:53;14.40;;;7.10;;
1479;SDS011;732;51.698;4.886;2023-07-31T09:57:22;7.43;;;6.20;;
1479;SDS011;732;51.698;4.886;2023-07-31T09:59:52;7.97;;;5.60;;
1479;SDS011;732;51.698;4.886;2023-07-31T10:02:22;7.43;;;5.37;;
1479;SDS011;732;51.698;4.886;2023-07-31T10:04:52;8.47;;;5.63;;
1479;SDS011;732;51.698;4.886;2023-07-31T10:07:27;7.33;;;5.53;;
1479;SDS011;732;51.698;4.886;2023-07-31T10:09:59;11.73;;;6.27;;
1479;SDS011;732;51.698;4.886;2023-07-31T10:12:31;9.67;;;6.27;;
1479;SDS011;732;51.698;4.886;2023-07-31T10:15:01;12.20;;;6.10;;
1479;SDS011;732;51.698;4.886;2023-07-31T10:17:31;7.33;;;5.30;;
1479;SDS011;732;51.698;4.886;2023-07-31T10:20:03;7.67;;;5.53;;
1479;SDS011;732;51.698;4.886;2023-07-31T10:22:34;8.60;;;5.27;;
1479;SDS011;732;51.698;4.886;2023-07-31T10:25:03;7.33;;;5.70;;
1479;SDS011;732;51.698;4.886;2023-07-31T10:27:36;8.07;;;5.37;;
1479;SDS011;732;51.698;4.886;2023-07-31T10:30:08;5.93;;;4.90;;
1479;SDS011;732;51.698;4.886;2023-07-31T10:32:41;6.80;;;5.00;;
1479;SDS011;732;51.698;4.886;2023-07-31T10:35:11;6.80;;;4.80;;
1479;SDS011;732;51.698;4.886;2023-07-31T10:37:40;7.83;;;5.47;;
1479;SDS011;732;51.698;4.886;2023-07-31T10:40:10;8.30;;;5.07;;
1479;SDS011;732;51.698;4.886;2023-07-31T10:42:47;8.00;;;5.40;;
1479;SDS011;732;51.698;4.886;2023-07-31T10:45:23;5.60;;;4.40;;
1479;SDS011;732;51.698;4.886;2023-07-31T10:48:00;6.20;;;4.93;;
1479;SDS011;732;51.698;4.886;2023-07-31T10:50:31;5.60;;;4.93;;
1479;SDS011;732;51.698;4.886;2023-07-31T10:53:04;5.53;;;4.20;;
1479;SDS011;732;51.698;4.886;2023-07-31T10:55:38;7.37;;;5.67;;
1479;SDS011;732;51.698;4.886;2023-07-31T10:58:11;7.70;;;6.50;;
1479;SDS011;732;51.698;4.886;2023-07-31T11:00:41;11.40;;;6.80;;
1479;SDS011;732;51.698;4.886;2023-07-31T11:03:12;7.97;;;6.90;;
1479;SDS011;732;51.698;4.886;2023-07-31T11:05:44;9.03;;;8.10;;
1479;SDS011;732;51.698;4.886;2023-07-31T11:08:15;10.20;;;8.40;;
1479;SDS011;732;51.698;4.886;2023-07-31T11:10:47;9.53;;;8.53;;
1479;SDS011;732;51.698;4.886;2023-07-31T11:13:19;10.70;;;9.63;;
1479;SDS011;732;51.698;4.886;2023-07-31T11:15:47;11.63;;;9.87;;
1479;SDS011;732;51.698;4.886;2023-07-31T11:18:15;10.90;;;9.60;;
1479;SDS011;732;51.698;4.886;2023-07-31T11:20:44;11.73;;;9.03;;
1479;SDS011;732;51.698;4.886;2023-07-31T11:23:16;9.20;;;7.80;;
1479;SDS011;732;51.698;4.886;2023-07-31T11:25:45;9.70;;;7.90;;
1479;SDS011;732;51.698;4.886;2023-07-31T11:28:15;10.23;;;9.23;;
1479;SDS011;732;51.698;4.886;2023-07-31T11:30:46;11.20;;;10.07;;
1479;SDS011;732;51.698;4.886;2023-07-31T11:33:14;11.23;;;9.97;;
1479;SDS011;732;51.698;4.886;2023-07-31T11:35:43;11.20;;;10.10;;
1479;SDS011;732;51.698;4.886;2023-07-31T11:38:20;11.53;;;10.40;;
1479;SDS011;732;51.698;4.886;2023-07-31T11:40:51;10.13;;;9.17;;
1479;SDS011;732;51.698;4.886;2023-07-31T11:43:20;10.93;;;9.90;;
1479;SDS011;732;51.698;4.886;2023-07-31T11:45:52;11.20;;;10.00;;
1479;SDS011;732;51.698;4.886;2023-07-31T11:48:25;10.53;;;9.53;;
1479;SDS011;732;51.698;4.886;2023-07-31T11:50:57;10.37;;;9.37;;
1479;SDS011;732;51.698;4.886;2023-07-31T11:53:27;9.90;;;8.90;;
1479;SDS011;732;51.698;4.886;2023-07-31T11:56:01;9.83;;;8.80;;
1479;SDS011;732;51.698;4.886;2023-07-31T11:58:31;10.27;;;8.67;;
1479;SDS011;732;51.698;4.886;2023-07-31T12:01:04;11.00;;;8.60;;
1479;SDS011;732;51.698;4.886;2023-07-31T12:03:33;8.70;;;7.90;;
1479;SDS011;732;51.698;4.886;2023-07-31T12:06:02;9.60;;;8.17;;
1479;SDS011;732;51.698;4.886;2023-07-31T12:08:30;8.80;;;8.00;;
1479;SDS011;732;51.698;4.886;2023-07-31T12:11:02;11.80;;;8.73;;
1479;SDS011;732;51.698;4.886;2023-07-31T12:13:32;9.20;;;8.30;;
1479;SDS011;732;51.698;4.886;2023-07-31T12:16:02;10.23;;;8.33;;
1479;SDS011;732;51.698;4.886;2023-07-31T12:18:33;10.60;;;9.20;;
1479;SDS011;732;51.698;4.886;2023-07-31T12:21:04;10.90;;;8.70;;
1479;SDS011;732;51.698;4.886;2023-07-31T12:23:34;10.90;;;9.60;;
1479;SDS011;732;51.698;4.886;2023-07-31T12:26:05;14.80;;;10.40;;
1479;SDS011;732;51.698;4.886;2023-07-31T12:28:35;18.33;;;11.67;;
1479;SDS011;732;51.698;4.886;2023-07-31T12:31:08;14.63;;;11.53;;
1479;SDS011;732;51.698;4.886;2023-07-31T12:33:39;16.40;;;12.33;;
1479;SDS011;732;51.698;4.886;2023-07-31T12:36:09;14.13;;;11.47;;
1479;SDS011;732;51.698;4.886;2023-07-31T12:38:40;15.70;;;12.13;;
1479;SDS011;732;51.698;4.886;2023-07-31T12:41:09;18.17;;;12.37;;
1479;SDS011;732;51.698;4.886;2023-07-31T12:43:38;17.23;;;13.30;;
1479;SDS011;732;51.698;4.886;2023-07-31T12:46:09;19.63;;;13.00;;
1479;SDS011;732;51.698;4.886;2023-07-31T12:48:38;17.03;;;13.43;;
1479;SDS011;732;51.698;4.886;2023-07-31T12:51:07;20.27;;;15.30;;
1479;SDS011;732;51.698;4.886;2023-07-31T12:53:36;19.40;;;15.17;;
1479;SDS011;732;51.698;4.886;2023-07-31T12:56:04;21.77;;;14.93;;
1479;SDS011;732;51.698;4.886;2023-07-31T12:58:33;18.80;;;13.20;;
1479;SDS011;732;51.698;4.886;2023-07-31T13:01:01;16.07;;;12.93;;
1479;SDS011;732;51.698;4.886;2023-07-31T13:03:31;18.17;;;14.40;;
1479;SDS011;732;51.698;4.886;2023-07-31T13:05:59;20.93;;;13.33;;
1479;SDS011;732;51.698;4.886;2023-07-31T13:08:27;19.57;;;14.17;;
1479;SDS011;732;51.698;4.886;2023-07-31T13:10:57;18.30;;;14.10;;
1479;SDS011;732;51.698;4.886;2023-07-31T13:13:25;21.10;;;15.20;;
1479;SDS011;732;51.698;4.886;2023-07-31T13:15:53;18.50;;;13.30;;
1479;SDS011;732;51.698;4.886;2023-07-31T13:18:22;20.40;;;14.63;;
1479;SDS011;732;51.698;4.886;2023-07-31T13:20:51;21.80;;;15.20;;
1479;SDS011;732;51.698;4.886;2023-07-31T13:23:20;23.27;;;14.77;;
1479;SDS011;732;51.698;4.886;2023-07-31T13:25:48;19.80;;;15.17;;
1479;SDS011;732;51.698;4.886;2023-07-31T13:28:17;20.43;;;14.63;;
1479;SDS011;732;51.698;4.886;2023-07-31T13:30:45;24.07;;;15.90;;
1479;SDS011;732;51.698;4.886;2023-07-31T13:33:13;26.40;;;16.10;;
1479;SDS011;732;51.698;4.886;2023-07-31T13:36:02;22.83;;;16.30;;
1479;SDS011;732;51.698;4.886;2023-07-31T13:38:30;22.97;;;16.27;;
1479;SDS011;732;51.698;4.886;2023-07-31T13:40:59;26.17;;;15.30;;
1479;SDS011;732;51.698;4.886;2023-07-31T13:43:27;26.73;;;16.60;;
1479;SDS011;732;51.698;4.886;2023-07-31T13:45:55;24.07;;;16.00;;
1479;SDS011;732;51.698;4.886;2023-07-31T13:48:30;23.37;;;15.83;;
1479;SDS011;732;51.698;4.886;2023-07-31T13:50:58;18.00;;;14.33;;
1479;SDS011;732;51.698;4.886;2023-07-31T13:53:27;22.03;;;15.10;;
1479;SDS011;732;51.698;4.886;2023-07-31T13:55:55;19.50;;;14.47;;
1479;SDS011;732;51.698;4.886;2023-07-31T13:58:24;20.67;;;15.40;;
1479;SDS011;732;51.698;4.886;2023-07-31T14:00:52;21.03;;;14.70;;
1479;SDS011;732;51.698;4.886;2023-07-31T14:03:20;23.70;;;16.07;;
1479;SDS011;732;51.698;4.886;2023-07-31T14:05:49;21.67;;;14.03;;
1479;SDS011;732;51.698;4.886;2023-07-31T14:08:17;28.20;;;16.07;;
1479;SDS011;732;51.698;4.886;2023-07-31T14:10:47;20.10;;;14.70;;
1479;SDS011;732;51.698;4.886;2023-07-31T14:13:15;20.23;;;15.00;;
1479;SDS011;732;51.698;4.886;2023-07-31T14:15:43;21.13;;;14.03;;
1479;SDS011;732;51.698;4.886;2023-07-31T14:18:12;17.50;;;12.83;;
1479;SDS011;732;51.698;4.886;2023-07-31T14:20:41;16.20;;;12.40;;
1479;SDS011;732;51.698;4.886;2023-07-31T14:23:09;22.90;;;13.90;;
1479;SDS011;732;51.698;4.886;2023-07-31T14:25:37;18.20;;;13.07;;
1479;SDS011;732;51.698;4.886;2023-07-31T14:28:07;14.93;;;11.77;;
1479;SDS011;732;51.698;4.886;2023-07-31T14:30:35;17.50;;;11.03;;
1479;SDS011;732;51.698;4.886;2023-07-31T14:33:03;15.33;;;9.60;;
1479;SDS011;732;51.698;4.886;2023-07-31T14:35:32;16.70;;;10.53;;
1479;SDS011;732;51.698;4.886;2023-07-31T14:38:01;12.73;;;8.20;;
1479;SDS011;732;51.698;4.886;2023-07-31T14:40:29;14.53;;;7.97;;
1479;SDS011;732;51.698;4.886;2023-07-31T14:42:58;8.70;;;5.87;;
1479;SDS011;732;51.698;4.886;2023-07-31T14:45:27;11.30;;;6.40;;
1479;SDS011;732;51.698;4.886;2023-07-31T14:47:56;14.43;;;6.27;;
1479;SDS011;732;51.698;4.886;2023-07-31T14:54:07;10.60;;;7.00;;
1479;SDS011;732;51.698;4.886;2023-07-31T14:56:36;9.90;;;6.63;;
1479;SDS011;732;51.698;4.886;2023-07-31T14:59:04;12.87;;;7.50;;
1479;SDS011;732;51.698;4.886;2023-07-31T15:01:35;14.63;;;5.87;;
1479;SDS011;732;51.698;4.886;2023-07-31T15:04:04;15.07;;;7.43;;
1479;SDS011;732;51.698;4.886;2023-07-31T15:06:32;11.33;;;7.27;;
1479;SDS011;732;51.698;4.886;2023-07-31T15:09:00;7.23;;;5.23;;
1479;SDS011;732;51.698;4.886;2023-07-31T15:11:28;8.03;;;4.80;;
1479;SDS011;732;51.698;4.886;2023-07-31T15:13:57;7.70;;;4.70;;
1479;SDS011;732;51.698;4.886;2023-07-31T15:16:25;9.10;;;4.90;;
1479;SDS011;732;51.698;4.886;2023-07-31T15:18:56;18.13;;;6.00;;
1479;SDS011;732;51.698;4.886;2023-07-31T15:21:25;8.50;;;4.50;;
1479;SDS011;732;51.698;4.886;2023-07-31T15:23:53;10.50;;;4.30;;
1479;SDS011;732;51.698;4.886;2023-07-31T15:26:22;8.77;;;4.10;;
1479;SDS011;732;51.698;4.886;2023-07-31T15:28:57;6.70;;;4.40;;